Chattaroy, WA (99003)

4:23 PM PST on February 05, 2016 (GMT -0800)
Mt. Kit Carson | | Change Station
CLOSE
Current Station
Personal Weather Station
Location: Chattaroy, WA
Elevation: 2887 ft
Nearby Weather Stations

Elev 2887 ft 47.89 °N, 117.19 °W | Updated 26 seconds ago

Overcast
Overcast
40.8 °F
Feels Like 41 °F
N
2.7
Wind Variable Wind from East
Gusts 4.9 mph

Today
High -- | Low -- °F
--% Chance of Precip.
Yesterday
High -- | Low -- °F
Precip. -- in
Pressure 30.29 in
Visibility 10.0 miles
Clouds Mostly Cloudy 11000 ft
Windchill 41 °F
Dew Point 33 °F
Humidity 75%
Rainfall 0.32 in
Snow Depth Not available.
7:11 AM 4:55 PM
Waning Crescent, 8% visible
METAR KDEW 052353Z AUTO 01004KT 10SM BKN110 03/02 A3023 RMK AO2 SLP255 T00330017 10067 20028 56023 TSNO
Pressure 30.29 in
Visibility 10.0 miles
Clouds Mostly Cloudy 11000 ft
Windchill 41 °F
Dew Point 33 °F
Humidity 75%
Rainfall 0.32 in
Snow Depth Not available.
7:11 AM 4:55 PM
Waning Crescent, 8% visible
METAR KDEW 052353Z AUTO 01004KT 10SM BKN110 03/02 A3023 RMK AO2 SLP255 T00330017 10067 20028 56023 TSNO

10-Day Weather Forecast

Almanac

Astronomy

Feb. 05, 2016 Rise Set
Actual Time
Civil Twilight
Nautical Twilight
Astronomical Twilight
Moon
Length of Visible Light
Length of Day
Tomorrow will be .
, % of the Moon is Illuminated

Today's Extremes

State Highs State Lows

Community

WunderPhotos

Upload Photos

1,890,897 photos uploaded!

WunderBlog® & News

Nearby

Air Quality

  Air Quality AQ Index Pollutant
Not available.

Snow Depth

Station Depth Elevation

Earthquake Activity

City Distance Mag. Time & Date
Minimum magnitude displayed is 2.5.

Coastal Water Temperatures

Place Temperature

Stations

Nearby Weather Stations

Station Location Temp. Windchill Dew Point Humidity Wind Precip. Elev Updated Type
                   

Watches & Warnings

There are currently no watches in effect.